sensor_id;sensor_type;location;lat;lon;timestamp;P1;durP1;ratioP1;P2;durP2;ratioP2
54517;SDS011;40423;53.176;6.002;2023-08-07T00:00:45;4.80;;;2.42;;
54517;SDS011;40423;53.176;6.002;2023-08-07T00:03:11;5.35;;;1.70;;
54517;SDS011;40423;53.176;6.002;2023-08-07T00:05:36;3.85;;;1.65;;
54517;SDS011;40423;53.176;6.002;2023-08-07T00:08:02;4.45;;;1.92;;
54517;SDS011;40423;53.176;6.002;2023-08-07T00:10:28;5.18;;;2.00;;
54517;SDS011;40423;53.176;6.002;2023-08-07T00:12:55;5.07;;;2.28;;
54517;SDS011;40423;53.176;6.002;2023-08-07T00:15:20;6.72;;;2.50;;
54517;SDS011;40423;53.176;6.002;2023-08-07T00:17:46;6.38;;;1.90;;
54517;SDS011;40423;53.176;6.002;2023-08-07T00:20:12;11.07;;;3.13;;
54517;SDS011;40423;53.176;6.002;2023-08-07T00:22:38;12.45;;;3.60;;
54517;SDS011;40423;53.176;6.002;2023-08-07T00:25:03;12.88;;;3.50;;
54517;SDS011;40423;53.176;6.002;2023-08-07T00:27:30;14.48;;;2.88;;
54517;SDS011;40423;53.176;6.002;2023-08-07T00:29:56;10.35;;;2.50;;
54517;SDS011;40423;53.176;6.002;2023-08-07T00:32:22;12.13;;;3.00;;
54517;SDS011;40423;53.176;6.002;2023-08-07T00:34:47;11.95;;;3.78;;
54517;SDS011;40423;53.176;6.002;2023-08-07T00:37:13;14.98;;;4.05;;
54517;SDS011;40423;53.176;6.002;2023-08-07T00:39:39;17.17;;;3.65;;
54517;SDS011;40423;53.176;6.002;2023-08-07T00:42:04;14.32;;;3.20;;
54517;SDS011;40423;53.176;6.002;2023-08-07T00:44:31;16.67;;;3.05;;
54517;SDS011;40423;53.176;6.002;2023-08-07T00:46:56;14.32;;;2.97;;
54517;SDS011;40423;53.176;6.002;2023-08-07T00:49:22;13.15;;;2.83;;
54517;SDS011;40423;53.176;6.002;2023-08-07T00:51:48;11.45;;;3.22;;
54517;SDS011;40423;53.176;6.002;2023-08-07T00:54:17;12.00;;;2.40;;
54517;SDS011;40423;53.176;6.002;2023-08-07T00:56:44;10.20;;;2.72;;
54517;SDS011;40423;53.176;6.002;2023-08-07T00:59:11;9.38;;;2.35;;
54517;SDS011;40423;53.176;6.002;2023-08-07T01:01:38;8.45;;;2.25;;
54517;SDS011;40423;53.176;6.002;2023-08-07T01:04:04;13.68;;;3.20;;
54517;SDS011;40423;53.176;6.002;2023-08-07T01:06:30;11.43;;;2.47;;
54517;SDS011;40423;53.176;6.002;2023-08-07T01:08:56;10.95;;;2.47;;
54517;SDS011;40423;53.176;6.002;2023-08-07T01:11:29;12.60;;;3.13;;
54517;SDS011;40423;53.176;6.002;2023-08-07T01:17:02;14.15;;;2.63;;
54517;SDS011;40423;53.176;6.002;2023-08-07T01:19:33;13.30;;;2.88;;
54517;SDS011;40423;53.176;6.002;2023-08-07T01:24:36;8.55;;;2.28;;
54517;SDS011;40423;53.176;6.002;2023-08-07T01:32:24;12.02;;;2.95;;
54517;SDS011;40423;53.176;6.002;2023-08-07T01:37:21;12.18;;;2.47;;
54517;SDS011;40423;53.176;6.002;2023-08-07T01:39:49;10.65;;;2.70;;
54517;SDS011;40423;53.176;6.002;2023-08-07T01:42:16;11.18;;;2.42;;
54517;SDS011;40423;53.176;6.002;2023-08-07T01:44:42;12.40;;;3.15;;
54517;SDS011;40423;53.176;6.002;2023-08-07T01:47:08;14.65;;;3.08;;
54517;SDS011;40423;53.176;6.002;2023-08-07T01:49:33;16.05;;;4.03;;
54517;SDS011;40423;53.176;6.002;2023-08-07T01:51:59;13.68;;;3.30;;
54517;SDS011;40423;53.176;6.002;2023-08-07T01:54:25;10.00;;;3.40;;
54517;SDS011;40423;53.176;6.002;2023-08-07T01:56:50;12.05;;;2.83;;
54517;SDS011;40423;53.176;6.002;2023-08-07T01:59:16;15.73;;;3.30;;
54517;SDS011;40423;53.176;6.002;2023-08-07T02:01:42;10.48;;;3.10;;
54517;SDS011;40423;53.176;6.002;2023-08-07T02:04:07;14.18;;;3.45;;
54517;SDS011;40423;53.176;6.002;2023-08-07T02:06:33;12.18;;;3.10;;
54517;SDS011;40423;53.176;6.002;2023-08-07T02:08:59;13.77;;;2.95;;
54517;SDS011;40423;53.176;6.002;2023-08-07T02:11:24;9.10;;;2.58;;
54517;SDS011;40423;53.176;6.002;2023-08-07T02:13:50;14.00;;;4.00;;
54517;SDS011;40423;53.176;6.002;2023-08-07T02:16:16;13.32;;;2.65;;
54517;SDS011;40423;53.176;6.002;2023-08-07T02:18:42;10.07;;;2.55;;
54517;SDS011;40423;53.176;6.002;2023-08-07T02:21:07;12.55;;;3.65;;
54517;SDS011;40423;53.176;6.002;2023-08-07T02:23:33;13.38;;;3.28;;
54517;SDS011;40423;53.176;6.002;2023-08-07T02:25:59;13.40;;;3.42;;
54517;SDS011;40423;53.176;6.002;2023-08-07T02:28:25;15.05;;;3.45;;
54517;SDS011;40423;53.176;6.002;2023-08-07T02:30:50;15.18;;;2.92;;
54517;SDS011;40423;53.176;6.002;2023-08-07T02:33:19;18.77;;;4.20;;
54517;SDS011;40423;53.176;6.002;2023-08-07T02:35:44;12.90;;;3.22;;
54517;SDS011;40423;53.176;6.002;2023-08-07T02:38:10;10.75;;;3.03;;
54517;SDS011;40423;53.176;6.002;2023-08-07T02:40:37;17.55;;;3.47;;
54517;SDS011;40423;53.176;6.002;2023-08-07T02:43:03;16.05;;;3.72;;
54517;SDS011;40423;53.176;6.002;2023-08-07T02:45:28;11.43;;;3.13;;
54517;SDS011;40423;53.176;6.002;2023-08-07T02:47:54;13.98;;;3.22;;
54517;SDS011;40423;53.176;6.002;2023-08-07T02:50:20;18.42;;;3.78;;
54517;SDS011;40423;53.176;6.002;2023-08-07T02:52:50;9.75;;;3.40;;
54517;SDS011;40423;53.176;6.002;2023-08-07T02:55:16;6.85;;;2.85;;
54517;SDS011;40423;53.176;6.002;2023-08-07T02:57:42;13.32;;;3.20;;
54517;SDS011;40423;53.176;6.002;2023-08-07T03:00:08;8.15;;;3.08;;
54517;SDS011;40423;53.176;6.002;2023-08-07T03:02:34;11.60;;;3.92;;
54517;SDS011;40423;53.176;6.002;2023-08-07T03:04:59;7.95;;;3.10;;
54517;SDS011;40423;53.176;6.002;2023-08-07T03:07:25;10.05;;;3.58;;
54517;SDS011;40423;53.176;6.002;2023-08-07T03:09:51;10.85;;;3.65;;
54517;SDS011;40423;53.176;6.002;2023-08-07T03:12:16;9.30;;;3.80;;
54517;SDS011;40423;53.176;6.002;2023-08-07T03:14:42;12.27;;;3.28;;
54517;SDS011;40423;53.176;6.002;2023-08-07T03:17:08;14.40;;;4.55;;
54517;SDS011;40423;53.176;6.002;2023-08-07T03:19:34;12.93;;;3.92;;
54517;SDS011;40423;53.176;6.002;2023-08-07T03:21:59;10.98;;;3.67;;
54517;SDS011;40423;53.176;6.002;2023-08-07T03:24:25;11.48;;;3.70;;
54517;SDS011;40423;53.176;6.002;2023-08-07T03:26:51;15.32;;;4.10;;
54517;SDS011;40423;53.176;6.002;2023-08-07T03:29:17;15.98;;;3.80;;
54517;SDS011;40423;53.176;6.002;2023-08-07T03:31:42;18.00;;;4.05;;
54517;SDS011;40423;53.176;6.002;2023-08-07T03:34:08;10.30;;;3.67;;
54517;SDS011;40423;53.176;6.002;2023-08-07T03:36:34;12.90;;;3.45;;
54517;SDS011;40423;53.176;6.002;2023-08-07T03:39:00;13.02;;;3.75;;
54517;SDS011;40423;53.176;6.002;2023-08-07T03:41:25;14.00;;;3.92;;
54517;SDS011;40423;53.176;6.002;2023-08-07T03:43:51;22.15;;;3.90;;
54517;SDS011;40423;53.176;6.002;2023-08-07T03:46:17;15.50;;;4.65;;
54517;SDS011;40423;53.176;6.002;2023-08-07T03:48:43;12.93;;;3.70;;
54517;SDS011;40423;53.176;6.002;2023-08-07T03:51:08;13.90;;;4.32;;
54517;SDS011;40423;53.176;6.002;2023-08-07T03:53:34;18.55;;;4.65;;
54517;SDS011;40423;53.176;6.002;2023-08-07T03:56:00;18.95;;;4.18;;
54517;SDS011;40423;53.176;6.002;2023-08-07T03:58:26;17.88;;;4.35;;
54517;SDS011;40423;53.176;6.002;2023-08-07T04:00:51;17.27;;;4.53;;
54517;SDS011;40423;53.176;6.002;2023-08-07T04:03:18;15.00;;;3.80;;
54517;SDS011;40423;53.176;6.002;2023-08-07T04:05:47;15.20;;;4.25;;
54517;SDS011;40423;53.176;6.002;2023-08-07T04:08:18;12.07;;;3.67;;
54517;SDS011;40423;53.176;6.002;2023-08-07T04:10:44;14.20;;;3.88;;
54517;SDS011;40423;53.176;6.002;2023-08-07T04:13:10;11.27;;;3.70;;
54517;SDS011;40423;53.176;6.002;2023-08-07T04:15:36;17.23;;;4.07;;
54517;SDS011;40423;53.176;6.002;2023-08-07T04:18:01;12.75;;;4.07;;
54517;SDS011;40423;53.176;6.002;2023-08-07T04:20:27;16.13;;;4.60;;
54517;SDS011;40423;53.176;6.002;2023-08-07T04:22:53;14.40;;;3.60;;
54517;SDS011;40423;53.176;6.002;2023-08-07T04:25:18;19.00;;;4.13;;
54517;SDS011;40423;53.176;6.002;2023-08-07T04:27:44;13.25;;;3.80;;
54517;SDS011;40423;53.176;6.002;2023-08-07T04:30:10;15.88;;;4.05;;
54517;SDS011;40423;53.176;6.002;2023-08-07T04:32:36;15.48;;;3.80;;
54517;SDS011;40423;53.176;6.002;2023-08-07T04:35:02;16.08;;;4.10;;
54517;SDS011;40423;53.176;6.002;2023-08-07T04:37:28;19.15;;;4.78;;
54517;SDS011;40423;53.176;6.002;2023-08-07T04:39:55;16.33;;;4.82;;
54517;SDS011;40423;53.176;6.002;2023-08-07T04:42:22;19.30;;;4.80;;
54517;SDS011;40423;53.176;6.002;2023-08-07T04:44:47;14.02;;;5.07;;
54517;SDS011;40423;53.176;6.002;2023-08-07T04:47:13;16.05;;;4.85;;
54517;SDS011;40423;53.176;6.002;2023-08-07T04:49:39;15.13;;;4.32;;
54517;SDS011;40423;53.176;6.002;2023-08-07T04:52:05;17.42;;;4.70;;
54517;SDS011;40423;53.176;6.002;2023-08-07T04:54:30;21.65;;;4.88;;
54517;SDS011;40423;53.176;6.002;2023-08-07T04:56:56;15.68;;;5.45;;
54517;SDS011;40423;53.176;6.002;2023-08-07T04:59:22;17.33;;;4.22;;
54517;SDS011;40423;53.176;6.002;2023-08-07T05:01:48;15.43;;;4.47;;
54517;SDS011;40423;53.176;6.002;2023-08-07T05:04:14;19.13;;;4.78;;
54517;SDS011;40423;53.176;6.002;2023-08-07T05:06:39;14.93;;;4.30;;
54517;SDS011;40423;53.176;6.002;2023-08-07T05:09:05;19.00;;;4.47;;
54517;SDS011;40423;53.176;6.002;2023-08-07T05:11:31;20.88;;;4.65;;
54517;SDS011;40423;53.176;6.002;2023-08-07T05:13:58;19.65;;;5.28;;
54517;SDS011;40423;53.176;6.002;2023-08-07T05:16:24;16.52;;;4.28;;
54517;SDS011;40423;53.176;6.002;2023-08-07T05:18:50;18.15;;;4.28;;
54517;SDS011;40423;53.176;6.002;2023-08-07T05:21:16;18.23;;;4.80;;
54517;SDS011;40423;53.176;6.002;2023-08-07T05:23:41;19.88;;;4.80;;
54517;SDS011;40423;53.176;6.002;2023-08-07T05:26:07;14.45;;;4.35;;
54517;SDS011;40423;53.176;6.002;2023-08-07T05:28:33;16.08;;;4.22;;
54517;SDS011;40423;53.176;6.002;2023-08-07T05:30:58;9.77;;;3.80;;
54517;SDS011;40423;53.176;6.002;2023-08-07T05:33:24;17.95;;;3.80;;
54517;SDS011;40423;53.176;6.002;2023-08-07T05:35:50;14.18;;;3.28;;
54517;SDS011;40423;53.176;6.002;2023-08-07T05:38:17;15.93;;;5.07;;
54517;SDS011;40423;53.176;6.002;2023-08-07T05:40:43;14.95;;;3.63;;
54517;SDS011;40423;53.176;6.002;2023-08-07T05:43:09;15.93;;;4.15;;
54517;SDS011;40423;53.176;6.002;2023-08-07T05:45:34;12.93;;;4.20;;
54517;SDS011;40423;53.176;6.002;2023-08-07T05:48:00;12.30;;;4.13;;
54517;SDS011;40423;53.176;6.002;2023-08-07T05:50:26;11.93;;;3.88;;
54517;SDS011;40423;53.176;6.002;2023-08-07T05:52:51;16.73;;;3.95;;
54517;SDS011;40423;53.176;6.002;2023-08-07T05:55:17;14.20;;;3.90;;
54517;SDS011;40423;53.176;6.002;2023-08-07T05:57:43;17.67;;;4.85;;
54517;SDS011;40423;53.176;6.002;2023-08-07T06:00:09;19.30;;;5.13;;
54517;SDS011;40423;53.176;6.002;2023-08-07T06:02:41;16.02;;;4.88;;
54517;SDS011;40423;53.176;6.002;2023-08-07T06:05:06;20.45;;;4.25;;
54517;SDS011;40423;53.176;6.002;2023-08-07T06:07:34;17.67;;;5.15;;
54517;SDS011;40423;53.176;6.002;2023-08-07T06:10:00;15.52;;;3.97;;
54517;SDS011;40423;53.176;6.002;2023-08-07T06:12:26;11.75;;;3.78;;
54517;SDS011;40423;53.176;6.002;2023-08-07T06:14:52;14.93;;;3.63;;
54517;SDS011;40423;53.176;6.002;2023-08-07T06:17:17;13.75;;;3.70;;
54517;SDS011;40423;53.176;6.002;2023-08-07T06:19:43;12.63;;;3.00;;
54517;SDS011;40423;53.176;6.002;2023-08-07T06:22:09;8.55;;;2.10;;
54517;SDS011;40423;53.176;6.002;2023-08-07T06:24:34;9.93;;;2.45;;
54517;SDS011;40423;53.176;6.002;2023-08-07T06:27:01;13.20;;;2.85;;
54517;SDS011;40423;53.176;6.002;2023-08-07T06:29:33;15.57;;;2.90;;
54517;SDS011;40423;53.176;6.002;2023-08-07T06:31:59;10.20;;;2.50;;
54517;SDS011;40423;53.176;6.002;2023-08-07T06:34:24;9.80;;;2.85;;
54517;SDS011;40423;53.176;6.002;2023-08-07T06:36:50;11.23;;;3.13;;
54517;SDS011;40423;53.176;6.002;2023-08-07T06:39:16;10.65;;;3.08;;
54517;SDS011;40423;53.176;6.002;2023-08-07T06:41:41;9.18;;;2.97;;
54517;SDS011;40423;53.176;6.002;2023-08-07T06:44:07;10.43;;;2.63;;
54517;SDS011;40423;53.176;6.002;2023-08-07T06:46:33;8.18;;;2.70;;
54517;SDS011;40423;53.176;6.002;2023-08-07T06:48:59;13.30;;;3.08;;
54517;SDS011;40423;53.176;6.002;2023-08-07T06:51:24;10.07;;;2.67;;
54517;SDS011;40423;53.176;6.002;2023-08-07T06:53:50;11.20;;;2.65;;
54517;SDS011;40423;53.176;6.002;2023-08-07T06:56:16;11.65;;;2.75;;
54517;SDS011;40423;53.176;6.002;2023-08-07T06:58:41;11.68;;;3.15;;
54517;SDS011;40423;53.176;6.002;2023-08-07T07:01:07;12.65;;;3.65;;
54517;SDS011;40423;53.176;6.002;2023-08-07T07:03:33;12.30;;;3.53;;
54517;SDS011;40423;53.176;6.002;2023-08-07T07:05:58;12.35;;;3.53;;
54517;SDS011;40423;53.176;6.002;2023-08-07T07:08:24;12.70;;;4.10;;
54517;SDS011;40423;53.176;6.002;2023-08-07T07:10:50;11.85;;;3.13;;
54517;SDS011;40423;53.176;6.002;2023-08-07T07:13:15;16.65;;;4.22;;
54517;SDS011;40423;53.176;6.002;2023-08-07T07:15:41;17.27;;;4.68;;
54517;SDS011;40423;53.176;6.002;2023-08-07T07:18:07;13.65;;;3.70;;
54517;SDS011;40423;53.176;6.002;2023-08-07T07:20:33;17.42;;;4.85;;
54517;SDS011;40423;53.176;6.002;2023-08-07T07:22:58;21.25;;;5.80;;
54517;SDS011;40423;53.176;6.002;2023-08-07T07:25:24;17.75;;;4.82;;
54517;SDS011;40423;53.176;6.002;2023-08-07T07:27:50;18.20;;;4.60;;
54517;SDS011;40423;53.176;6.002;2023-08-07T07:30:16;16.27;;;4.40;;
54517;SDS011;40423;53.176;6.002;2023-08-07T07:32:42;13.32;;;3.80;;
54517;SDS011;40423;53.176;6.002;2023-08-07T07:35:08;9.88;;;3.25;;
54517;SDS011;40423;53.176;6.002;2023-08-07T07:37:33;11.27;;;3.65;;
54517;SDS011;40423;53.176;6.002;2023-08-07T07:39:59;10.43;;;3.50;;
54517;SDS011;40423;53.176;6.002;2023-08-07T07:42:25;18.33;;;4.45;;
54517;SDS011;40423;53.176;6.002;2023-08-07T07:44:51;14.60;;;3.97;;
54517;SDS011;40423;53.176;6.002;2023-08-07T07:47:16;14.40;;;4.45;;
54517;SDS011;40423;53.176;6.002;2023-08-07T07:49:44;15.00;;;4.40;;
54517;SDS011;40423;53.176;6.002;2023-08-07T07:52:12;14.00;;;4.30;;
54517;SDS011;40423;53.176;6.002;2023-08-07T07:54:38;12.57;;;4.10;;
54517;SDS011;40423;53.176;6.002;2023-08-07T07:57:04;13.25;;;4.15;;
54517;SDS011;40423;53.176;6.002;2023-08-07T07:59:30;13.88;;;4.00;;
54517;SDS011;40423;53.176;6.002;2023-08-07T08:01:56;12.82;;;4.25;;
54517;SDS011;40423;53.176;6.002;2023-08-07T08:04:22;14.23;;;3.50;;
54517;SDS011;40423;53.176;6.002;2023-08-07T08:06:48;17.15;;;3.97;;
54517;SDS011;40423;53.176;6.002;2023-08-07T08:09:14;13.90;;;3.63;;
54517;SDS011;40423;53.176;6.002;2023-08-07T08:11:40;18.30;;;3.60;;
54517;SDS011;40423;53.176;6.002;2023-08-07T08:14:06;14.02;;;4.00;;
54517;SDS011;40423;53.176;6.002;2023-08-07T08:16:32;7.55;;;2.85;;
54517;SDS011;40423;53.176;6.002;2023-08-07T08:18:58;13.95;;;2.63;;
54517;SDS011;40423;53.176;6.002;2023-08-07T08:21:23;12.15;;;2.50;;
54517;SDS011;40423;53.176;6.002;2023-08-07T08:23:49;12.02;;;2.75;;
54517;SDS011;40423;53.176;6.002;2023-08-07T08:26:15;7.00;;;2.50;;
54517;SDS011;40423;53.176;6.002;2023-08-07T08:28:41;6.35;;;2.63;;
54517;SDS011;40423;53.176;6.002;2023-08-07T08:31:07;8.52;;;2.67;;
54517;SDS011;40423;53.176;6.002;2023-08-07T08:33:33;9.15;;;2.45;;
54517;SDS011;40423;53.176;6.002;2023-08-07T08:35:59;9.80;;;2.72;;
54517;SDS011;40423;53.176;6.002;2023-08-07T08:38:25;8.85;;;2.65;;
54517;SDS011;40423;53.176;6.002;2023-08-07T08:40:54;10.55;;;3.10;;
54517;SDS011;40423;53.176;6.002;2023-08-07T08:43:20;9.35;;;2.88;;
54517;SDS011;40423;53.176;6.002;2023-08-07T08:45:49;9.20;;;2.53;;
54517;SDS011;40423;53.176;6.002;2023-08-07T08:48:16;12.52;;;2.40;;
54517;SDS011;40423;53.176;6.002;2023-08-07T08:50:48;7.35;;;2.40;;
54517;SDS011;40423;53.176;6.002;2023-08-07T08:53:15;8.18;;;2.55;;
54517;SDS011;40423;53.176;6.002;2023-08-07T08:55:42;8.02;;;2.75;;
54517;SDS011;40423;53.176;6.002;2023-08-07T08:58:15;13.30;;;2.60;;
54517;SDS011;40423;53.176;6.002;2023-08-07T09:00:42;8.32;;;2.28;;
54517;SDS011;40423;53.176;6.002;2023-08-07T09:03:09;11.77;;;2.70;;
54517;SDS011;40423;53.176;6.002;2023-08-07T09:05:35;7.85;;;2.22;;
54517;SDS011;40423;53.176;6.002;2023-08-07T09:08:02;7.25;;;2.72;;
54517;SDS011;40423;53.176;6.002;2023-08-07T09:10:28;7.05;;;2.40;;
54517;SDS011;40423;53.176;6.002;2023-08-07T09:13:02;8.52;;;2.53;;
54517;SDS011;40423;53.176;6.002;2023-08-07T09:15:33;11.93;;;2.92;;
54517;SDS011;40423;53.176;6.002;2023-08-07T09:18:04;11.38;;;2.67;;
54517;SDS011;40423;53.176;6.002;2023-08-07T09:20:35;10.07;;;2.75;;
54517;SDS011;40423;53.176;6.002;2023-08-07T09:23:04;10.57;;;3.13;;
54517;SDS011;40423;53.176;6.002;2023-08-07T09:25:31;8.10;;;2.60;;
54517;SDS011;40423;53.176;6.002;2023-08-07T09:27:58;11.65;;;3.63;;
54517;SDS011;40423;53.176;6.002;2023-08-07T09:30:36;8.05;;;2.90;;
54517;SDS011;40423;53.176;6.002;2023-08-07T09:33:03;9.55;;;2.95;;
54517;SDS011;40423;53.176;6.002;2023-08-07T09:35:29;11.07;;;2.90;;
54517;SDS011;40423;53.176;6.002;2023-08-07T09:37:57;8.98;;;2.22;;
54517;SDS011;40423;53.176;6.002;2023-08-07T09:40:23;8.77;;;2.30;;
54517;SDS011;40423;53.176;6.002;2023-08-07T09:42:52;11.40;;;2.92;;
54517;SDS011;40423;53.176;6.002;2023-08-07T09:45:22;9.38;;;2.70;;
54517;SDS011;40423;53.176;6.002;2023-08-07T09:47:57;7.68;;;3.03;;
54517;SDS011;40423;53.176;6.002;2023-08-07T09:50:24;9.10;;;2.38;;
54517;SDS011;40423;53.176;6.002;2023-08-07T09:52:50;8.45;;;2.28;;
54517;SDS011;40423;53.176;6.002;2023-08-07T09:55:16;9.40;;;2.60;;
54517;SDS011;40423;53.176;6.002;2023-08-07T09:57:45;8.52;;;2.80;;
54517;SDS011;40423;53.176;6.002;2023-08-07T10:00:11;8.70;;;2.75;;
54517;SDS011;40423;53.176;6.002;2023-08-07T10:02:40;8.98;;;2.67;;
54517;SDS011;40423;53.176;6.002;2023-08-07T10:05:09;10.38;;;2.67;;
54517;SDS011;40423;53.176;6.002;2023-08-07T10:07:39;16.63;;;3.38;;
54517;SDS011;40423;53.176;6.002;2023-08-07T10:10:08;12.90;;;2.90;;
54517;SDS011;40423;53.176;6.002;2023-08-07T10:12:35;10.20;;;2.92;;
54517;SDS011;40423;53.176;6.002;2023-08-07T10:15:02;9.35;;;2.20;;
54517;SDS011;40423;53.176;6.002;2023-08-07T10:17:28;8.32;;;2.35;;
54517;SDS011;40423;53.176;6.002;2023-08-07T10:19:56;11.60;;;2.72;;
54517;SDS011;40423;53.176;6.002;2023-08-07T10:22:25;9.48;;;3.30;;
54517;SDS011;40423;53.176;6.002;2023-08-07T10:24:54;10.18;;;2.55;;
54517;SDS011;40423;53.176;6.002;2023-08-07T10:27:23;6.70;;;3.03;;
54517;SDS011;40423;53.176;6.002;2023-08-07T10:29:50;11.40;;;2.67;;
54517;SDS011;40423;53.176;6.002;2023-08-07T10:32:19;7.35;;;2.25;;
54517;SDS011;40423;53.176;6.002;2023-08-07T10:34:46;6.07;;;1.88;;
54517;SDS011;40423;53.176;6.002;2023-08-07T10:40:02;9.15;;;2.22;;
54517;SDS011;40423;53.176;6.002;2023-08-07T10:45:19;8.98;;;3.03;;
54517;SDS011;40423;53.176;6.002;2023-08-07T10:50:28;6.22;;;1.95;;
54517;SDS011;40423;53.176;6.002;2023-08-07T10:52:55;9.27;;;2.95;;
54517;SDS011;40423;53.176;6.002;2023-08-07T10:55:21;12.35;;;2.40;;
54517;SDS011;40423;53.176;6.002;2023-08-07T10:57:48;8.27;;;2.25;;
54517;SDS011;40423;53.176;6.002;2023-08-07T11:00:14;5.88;;;1.55;;
54517;SDS011;40423;53.176;6.002;2023-08-07T11:02:41;6.15;;;2.00;;
54517;SDS011;40423;53.176;6.002;2023-08-07T11:05:08;5.00;;;2.28;;
54517;SDS011;40423;53.176;6.002;2023-08-07T11:07:33;11.55;;;2.60;;
54517;SDS011;40423;53.176;6.002;2023-08-07T11:10:04;6.90;;;2.15;;
54517;SDS011;40423;53.176;6.002;2023-08-07T11:12:30;6.88;;;2.85;;
54517;SDS011;40423;53.176;6.002;2023-08-07T11:14:56;6.60;;;1.90;;
54517;SDS011;40423;53.176;6.002;2023-08-07T11:17:26;7.50;;;2.03;;
54517;SDS011;40423;53.176;6.002;2023-08-07T11:19:53;6.65;;;1.75;;
54517;SDS011;40423;53.176;6.002;2023-08-07T11:22:22;10.77;;;2.38;;
54517;SDS011;40423;53.176;6.002;2023-08-07T11:24:48;9.63;;;2.38;;
54517;SDS011;40423;53.176;6.002;2023-08-07T11:27:15;9.60;;;2.83;;
54517;SDS011;40423;53.176;6.002;2023-08-07T11:29:40;10.45;;;2.30;;
54517;SDS011;40423;53.176;6.002;2023-08-07T11:32:06;7.93;;;2.15;;
54517;SDS011;40423;53.176;6.002;2023-08-07T11:34:33;8.68;;;2.90;;
54517;SDS011;40423;53.176;6.002;2023-08-07T11:36:59;7.15;;;2.20;;
54517;SDS011;40423;53.176;6.002;2023-08-07T11:39:26;7.25;;;2.35;;
54517;SDS011;40423;53.176;6.002;2023-08-07T11:41:51;11.85;;;3.20;;
54517;SDS011;40423;53.176;6.002;2023-08-07T11:44:20;10.43;;;2.60;;
54517;SDS011;40423;53.176;6.002;2023-08-07T11:46:47;15.65;;;3.55;;
54517;SDS011;40423;53.176;6.002;2023-08-07T11:49:13;8.77;;;2.42;;
54517;SDS011;40423;53.176;6.002;2023-08-07T11:51:39;7.53;;;2.50;;
54517;SDS011;40423;53.176;6.002;2023-08-07T11:54:05;5.55;;;2.40;;
54517;SDS011;40423;53.176;6.002;2023-08-07T11:56:31;9.10;;;2.80;;
54517;SDS011;40423;53.176;6.002;2023-08-07T11:58:57;6.53;;;2.83;;
54517;SDS011;40423;53.176;6.002;2023-08-07T12:01:24;8.00;;;2.70;;
54517;SDS011;40423;53.176;6.002;2023-08-07T12:06:35;9.15;;;2.30;;
54517;SDS011;40423;53.176;6.002;2023-08-07T12:09:05;8.38;;;2.58;;
54517;SDS011;40423;53.176;6.002;2023-08-07T12:11:37;7.88;;;2.47;;
54517;SDS011;40423;53.176;6.002;2023-08-07T12:14:03;8.15;;;2.10;;
54517;SDS011;40423;53.176;6.002;2023-08-07T12:16:32;7.72;;;2.10;;
54517;SDS011;40423;53.176;6.002;2023-08-07T12:18:58;4.03;;;1.65;;
54517;SDS011;40423;53.176;6.002;2023-08-07T12:21:24;5.45;;;1.70;;
54517;SDS011;40423;53.176;6.002;2023-08-07T12:23:51;4.72;;;1.70;;
54517;SDS011;40423;53.176;6.002;2023-08-07T12:26:19;4.45;;;1.50;;
54517;SDS011;40423;53.176;6.002;2023-08-07T12:28:45;7.80;;;1.90;;
54517;SDS011;40423;53.176;6.002;2023-08-07T12:31:11;7.25;;;1.90;;
54517;SDS011;40423;53.176;6.002;2023-08-07T12:33:36;5.55;;;1.85;;
54517;SDS011;40423;53.176;6.002;2023-08-07T12:36:02;6.57;;;2.00;;
54517;SDS011;40423;53.176;6.002;2023-08-07T12:38:28;8.18;;;2.20;;
54517;SDS011;40423;53.176;6.002;2023-08-07T12:40:54;6.90;;;2.30;;
54517;SDS011;40423;53.176;6.002;2023-08-07T12:43:20;11.23;;;2.63;;
54517;SDS011;40423;53.176;6.002;2023-08-07T12:45:46;8.25;;;2.63;;
54517;SDS011;40423;53.176;6.002;2023-08-07T12:48:12;7.55;;;2.40;;
54517;SDS011;40423;53.176;6.002;2023-08-07T12:50:38;6.43;;;2.72;;
54517;SDS011;40423;53.176;6.002;2023-08-07T12:53:05;5.57;;;2.20;;
54517;SDS011;40423;53.176;6.002;2023-08-07T12:55:31;12.02;;;2.30;;
54517;SDS011;40423;53.176;6.002;2023-08-07T12:57:57;8.25;;;2.63;;
54517;SDS011;40423;53.176;6.002;2023-08-07T13:00:23;8.65;;;2.70;;
54517;SDS011;40423;53.176;6.002;2023-08-07T13:02:50;9.48;;;2.75;;
54517;SDS011;40423;53.176;6.002;2023-08-07T13:05:16;6.68;;;2.97;;
54517;SDS011;40423;53.176;6.002;2023-08-07T13:07:44;8.32;;;3.08;;
54517;SDS011;40423;53.176;6.002;2023-08-07T13:10:11;8.13;;;2.60;;
54517;SDS011;40423;53.176;6.002;2023-08-07T13:12:40;7.75;;;2.90;;
54517;SDS011;40423;53.176;6.002;2023-08-07T13:15:08;8.38;;;3.08;;
54517;SDS011;40423;53.176;6.002;2023-08-07T13:17:38;6.93;;;2.80;;
54517;SDS011;40423;53.176;6.002;2023-08-07T13:20:04;5.30;;;2.50;;
54517;SDS011;40423;53.176;6.002;2023-08-07T13:22:36;9.23;;;3.40;;
54517;SDS011;40423;53.176;6.002;2023-08-07T13:25:03;8.93;;;2.58;;
54517;SDS011;40423;53.176;6.002;2023-08-07T13:27:32;8.07;;;2.60;;
54517;SDS011;40423;53.176;6.002;2023-08-07T13:29:58;7.55;;;2.70;;
54517;SDS011;40423;53.176;6.002;2023-08-07T13:32:25;12.40;;;4.05;;
54517;SDS011;40423;53.176;6.002;2023-08-07T13:34:51;8.25;;;2.60;;
54517;SDS011;40423;53.176;6.002;2023-08-07T13:37:17;7.88;;;2.67;;
54517;SDS011;40423;53.176;6.002;2023-08-07T13:39:42;7.40;;;2.95;;
54517;SDS011;40423;53.176;6.002;2023-08-07T13:42:08;6.82;;;2.38;;
54517;SDS011;40423;53.176;6.002;2023-08-07T13:44:35;8.82;;;1.92;;
54517;SDS011;40423;53.176;6.002;2023-08-07T13:47:01;6.15;;;2.38;;
54517;SDS011;40423;53.176;6.002;2023-08-07T13:49:27;7.38;;;2.20;;
54517;SDS011;40423;53.176;6.002;2023-08-07T13:51:53;8.20;;;2.13;;
54517;SDS011;40423;53.176;6.002;2023-08-07T13:54:19;8.63;;;2.63;;
54517;SDS011;40423;53.176;6.002;2023-08-07T13:56:45;8.45;;;2.10;;
54517;SDS011;40423;53.176;6.002;2023-08-07T13:59:10;8.70;;;2.70;;
54517;SDS011;40423;53.176;6.002;2023-08-07T14:01:36;8.00;;;2.60;;
54517;SDS011;40423;53.176;6.002;2023-08-07T14:04:02;11.02;;;2.78;;
54517;SDS011;40423;53.176;6.002;2023-08-07T14:06:30;8.57;;;2.40;;
54517;SDS011;40423;53.176;6.002;2023-08-07T14:08:56;7.25;;;2.35;;
54517;SDS011;40423;53.176;6.002;2023-08-07T14:11:22;8.85;;;2.60;;
54517;SDS011;40423;53.176;6.002;2023-08-07T14:13:52;7.32;;;2.45;;
54517;SDS011;40423;53.176;6.002;2023-08-07T14:16:18;8.13;;;2.35;;
54517;SDS011;40423;53.176;6.002;2023-08-07T14:18:44;7.90;;;2.05;;
54517;SDS011;40423;53.176;6.002;2023-08-07T14:21:09;6.78;;;2.15;;
54517;SDS011;40423;53.176;6.002;2023-08-07T14:23:35;6.22;;;1.90;;
54517;SDS011;40423;53.176;6.002;2023-08-07T14:26:01;4.90;;;2.20;;
54517;SDS011;40423;53.176;6.002;2023-08-07T14:28:27;4.90;;;2.08;;
54517;SDS011;40423;53.176;6.002;2023-08-07T14:30:53;7.95;;;2.35;;
54517;SDS011;40423;53.176;6.002;2023-08-07T14:33:22;5.55;;;1.90;;
54517;SDS011;40423;53.176;6.002;2023-08-07T14:35:47;5.13;;;2.17;;
54517;SDS011;40423;53.176;6.002;2023-08-07T14:38:13;11.10;;;2.17;;
54517;SDS011;40423;53.176;6.002;2023-08-07T14:40:39;8.13;;;2.28;;
54517;SDS011;40423;53.176;6.002;2023-08-07T14:43:06;5.82;;;1.70;;
54517;SDS011;40423;53.176;6.002;2023-08-07T14:45:32;5.70;;;1.98;;
54517;SDS011;40423;53.176;6.002;2023-08-07T14:47:58;9.13;;;2.40;;
54517;SDS011;40423;53.176;6.002;2023-08-07T14:50:23;7.78;;;1.90;;
54517;SDS011;40423;53.176;6.002;2023-08-07T14:52:49;6.25;;;2.05;;
54517;SDS011;40423;53.176;6.002;2023-08-07T14:55:15;5.70;;;1.90;;
54517;SDS011;40423;53.176;6.002;2023-08-07T14:57:40;6.65;;;1.70;;
54517;SDS011;40423;53.176;6.002;2023-08-07T15:00:06;6.07;;;1.88;;